createdAt,value
2023-02-23T00:01:22.225Z,7.53
2023-02-23T00:03:49.867Z,7.53
2023-02-23T00:06:17.858Z,7.60
2023-02-23T00:08:44.618Z,7.63
2023-02-23T00:11:14.610Z,7.67
2023-02-23T00:13:42.457Z,7.72
2023-02-23T00:16:20.353Z,7.76
2023-02-23T00:18:53.718Z,7.81
2023-02-23T00:21:26.049Z,7.86
2023-02-23T00:24:18.686Z,7.90
2023-02-23T00:26:47.891Z,7.96
2023-02-23T00:29:17.403Z,7.98
2023-02-23T00:31:50.504Z,7.96
2023-02-23T00:34:21.627Z,8.01
2023-02-23T00:36:54.668Z,8.03
2023-02-23T00:39:23.782Z,8.05
2023-02-23T00:41:52.357Z,8.08
2023-02-23T00:44:21.004Z,8.09
2023-02-23T00:46:51.772Z,7.95
2023-02-23T00:49:20.381Z,7.97
2023-02-23T00:51:47.088Z,7.81
2023-02-23T00:54:14.926Z,7.75
2023-02-23T00:56:41.682Z,7.72
2023-02-23T00:59:08.668Z,7.72
2023-02-23T01:01:35.370Z,7.68
2023-02-23T01:04:02.115Z,7.58
2023-02-23T01:06:30.240Z,7.51
2023-02-23T01:08:57.692Z,7.40
2023-02-23T01:11:27.969Z,7.37
2023-02-23T01:13:58.269Z,7.30
2023-02-23T01:16:28.045Z,7.31
2023-02-23T01:18:56.799Z,7.20
2023-02-23T01:21:25.981Z,7.15
2023-02-23T01:23:53.288Z,7.13
2023-02-23T01:26:24.965Z,7.16
2023-02-23T01:28:59.145Z,7.19
2023-02-23T01:31:26.084Z,7.17
2023-02-23T01:33:57.229Z,7.17
2023-02-23T01:36:25.592Z,7.17
2023-02-23T01:38:56.479Z,7.24
2023-02-23T01:41:24.177Z,7.26
2023-02-23T01:44:13.159Z,7.26
2023-02-23T01:46:41.486Z,7.29
2023-02-23T01:49:15.547Z,7.30
2023-02-23T01:51:51.676Z,7.32
2023-02-23T01:54:24.428Z,7.34
2023-02-23T01:56:58.257Z,7.36
2023-02-23T01:59:34.222Z,7.38
2023-02-23T02:02:01.215Z,7.36
2023-02-23T02:04:28.854Z,7.29
2023-02-23T02:07:02.004Z,7.31
2023-02-23T02:09:29.403Z,7.31
2023-02-23T02:12:02.692Z,7.33
2023-02-23T02:14:31.004Z,7.36
2023-02-23T02:17:07.553Z,7.37
2023-02-23T02:19:34.071Z,7.39
2023-02-23T02:22:14.478Z,7.40
2023-02-23T02:24:54.788Z,7.39
2023-02-23T02:27:38.509Z,7.40
2023-02-23T02:30:27.653Z,7.40
2023-02-23T02:33:34.957Z,7.36
2023-02-23T02:36:26.535Z,7.29
2023-02-23T02:39:35.051Z,7.23
2023-02-23T02:42:21.639Z,7.22
2023-02-23T02:45:15.827Z,7.21
2023-02-23T02:48:07.476Z,7.21
2023-02-23T02:50:46.592Z,7.23
2023-02-23T02:53:20.705Z,7.21
2023-02-23T02:55:48.317Z,7.24
2023-02-23T02:58:15.288Z,7.25
2023-02-23T03:01:02.090Z,7.23
2023-02-23T03:03:59.981Z,7.23
2023-02-23T03:06:52.378Z,7.28
2023-02-23T03:10:00.122Z,7.29
2023-02-23T03:12:52.476Z,7.30
2023-02-23T03:16:08.857Z,7.31
2023-02-23T03:19:43.456Z,7.34
2023-02-23T03:22:36.694Z,7.36
2023-02-23T03:25:32.068Z,7.35
2023-02-23T03:28:31.950Z,7.37
2023-02-23T03:31:32.788Z,7.39
2023-02-23T03:34:40.897Z,7.39
2023-02-23T03:37:37.262Z,7.40
2023-02-23T03:40:27.842Z,7.40
2023-02-23T03:43:15.407Z,7.43
2023-02-23T03:46:02.838Z,7.44
2023-02-23T03:48:48.723Z,7.47
2023-02-23T03:51:34.713Z,7.46
2023-02-23T03:54:26.163Z,7.43
2023-02-23T03:57:12.407Z,7.37
2023-02-23T04:00:04.556Z,7.21
2023-02-23T04:03:00.105Z,7.31
2023-02-23T04:05:45.453Z,7.33
2023-02-23T04:08:33.452Z,7.19
2023-02-23T04:11:46.541Z,7.31
2023-02-23T04:14:21.091Z,7.26
2023-02-23T04:16:48.361Z,7.28
2023-02-23T04:19:15.130Z,7.31
2023-02-23T04:21:41.785Z,7.34
2023-02-23T04:24:09.609Z,7.32
2023-02-23T04:26:36.284Z,7.34
2023-02-23T04:29:02.906Z,7.34
2023-02-23T04:31:29.592Z,7.36
2023-02-23T04:33:56.225Z,7.35
2023-02-23T04:36:24.306Z,7.36
2023-02-23T04:38:50.937Z,7.35
2023-02-23T04:41:18.149Z,7.36
2023-02-23T04:43:44.898Z,7.38
2023-02-23T04:46:11.644Z,7.37
2023-02-23T04:48:38.329Z,7.38
2023-02-23T04:51:05.066Z,7.40
2023-02-23T04:53:31.654Z,7.34
2023-02-23T04:55:58.274Z,7.37
2023-02-23T04:58:24.905Z,7.38
2023-02-23T05:00:51.533Z,7.35
2023-02-23T05:03:18.132Z,7.37
2023-02-23T05:05:45.317Z,7.36
2023-02-23T05:08:11.936Z,7.38
2023-02-23T05:10:40.274Z,7.38
2023-02-23T05:13:07.044Z,7.38
2023-02-23T05:15:33.671Z,7.38
2023-02-23T05:18:00.690Z,7.34
2023-02-23T05:20:27.747Z,7.23
2023-02-23T05:22:54.379Z,7.24
2023-02-23T05:25:21.072Z,7.21
2023-02-23T05:27:47.687Z,7.24
2023-02-23T05:30:14.447Z,7.26
2023-02-23T05:32:41.115Z,7.29
2023-02-23T05:35:10.761Z,7.30
2023-02-23T05:37:37.338Z,7.31
2023-02-23T05:40:04.860Z,7.34
2023-02-23T05:42:31.518Z,7.36
2023-02-23T05:44:58.192Z,7.38
2023-02-23T05:47:24.840Z,7.31
2023-02-23T05:49:51.487Z,7.25
2023-02-23T05:52:18.170Z,7.30
2023-02-23T05:54:45.500Z,7.30
2023-02-23T05:57:12.525Z,7.29
2023-02-23T05:59:39.106Z,7.29
2023-02-23T06:02:06.275Z,7.30
2023-02-23T06:04:33.323Z,7.33
2023-02-23T06:07:00.070Z,7.35
2023-02-23T06:09:26.729Z,7.37
2023-02-23T06:11:53.501Z,7.30
2023-02-23T06:14:20.137Z,7.27
2023-02-23T06:16:48.853Z,7.29
2023-02-23T06:19:15.716Z,7.34
2023-02-23T06:21:44.446Z,7.38
2023-02-23T06:24:12.334Z,7.39
2023-02-23T06:26:39.283Z,7.43
2023-02-23T06:29:05.920Z,7.44
2023-02-23T06:31:32.693Z,7.46
2023-02-23T06:33:59.389Z,7.50
2023-02-23T06:36:27.289Z,7.48
2023-02-23T06:38:59.762Z,7.48
2023-02-23T06:41:26.735Z,7.47
2023-02-23T06:43:53.354Z,7.46
2023-02-23T06:46:20.165Z,7.46
2023-02-23T06:48:46.991Z,7.45
2023-02-23T06:51:13.694Z,7.45
2023-02-23T06:53:40.281Z,7.48
2023-02-23T06:56:07.416Z,7.52
2023-02-23T06:58:38.637Z,7.50
2023-02-23T07:01:05.579Z,7.53
2023-02-23T07:03:32.506Z,7.53
2023-02-23T07:05:59.127Z,7.56
2023-02-23T07:08:26.102Z,7.58
2023-02-23T07:10:54.693Z,7.59
2023-02-23T07:13:22.038Z,7.58
2023-02-23T07:15:49.149Z,7.60
2023-02-23T07:18:16.412Z,7.64
2023-02-23T07:20:43.055Z,7.65
2023-02-23T07:23:09.669Z,7.67
2023-02-23T07:25:36.451Z,7.69
2023-02-23T07:28:03.030Z,7.70
2023-02-23T07:30:29.759Z,7.75
2023-02-23T07:32:56.450Z,7.75
2023-02-23T07:35:23.079Z,7.76
2023-02-23T07:37:49.668Z,7.78
2023-02-23T07:40:17.276Z,7.86
2023-02-23T07:42:44.730Z,7.99
2023-02-23T07:45:11.871Z,8.10
2023-02-23T07:47:39.520Z,8.16
2023-02-23T07:50:10.446Z,8.20
2023-02-23T07:52:38.111Z,8.24
2023-02-23T07:55:05.685Z,8.29
2023-02-23T07:57:34.932Z,8.34
2023-02-23T08:00:05.171Z,8.35
2023-02-23T08:02:39.339Z,8.41
2023-02-23T08:05:08.582Z,8.41
2023-02-23T08:07:35.242Z,8.41
2023-02-23T08:10:01.907Z,8.35
2023-02-23T08:12:28.690Z,8.33
2023-02-23T08:14:55.344Z,8.35
2023-02-23T08:17:21.995Z,8.44
2023-02-23T08:19:50.150Z,8.57
2023-02-23T08:22:17.223Z,8.66
2023-02-23T08:24:43.861Z,8.74
2023-02-23T08:27:10.651Z,8.92
2023-02-23T08:29:37.292Z,9.01
2023-02-23T08:32:04.828Z,8.92
2023-02-23T08:34:31.900Z,8.99
2023-02-23T08:36:58.656Z,9.05
2023-02-23T08:39:25.542Z,9.13
2023-02-23T08:41:56.665Z,9.18
2023-02-23T08:44:26.318Z,9.19
2023-02-23T08:46:53.967Z,9.14
2023-02-23T08:49:20.803Z,9.13
2023-02-23T08:51:47.541Z,9.20
2023-02-23T08:54:16.308Z,9.29
2023-02-23T08:56:43.516Z,9.36
2023-02-23T08:59:11.782Z,9.43
2023-02-23T09:01:38.778Z,9.54
2023-02-23T09:04:05.959Z,9.61
2023-02-23T09:06:32.943Z,9.68
2023-02-23T09:08:59.610Z,9.75
2023-02-23T09:11:26.343Z,9.86
2023-02-23T09:13:52.999Z,9.94
2023-02-23T09:16:19.663Z,9.94
2023-02-23T09:18:46.362Z,9.92
2023-02-23T09:21:25.431Z,9.97
2023-02-23T09:23:55.998Z,10.04
2023-02-23T09:26:23.467Z,10.01
2023-02-23T09:28:50.991Z,10.02
2023-02-23T09:31:22.122Z,10.00
2023-02-23T09:33:49.610Z,10.03
2023-02-23T09:36:23.044Z,10.11
2023-02-23T09:38:56.557Z,10.11
2023-02-23T09:41:26.933Z,10.07
2023-02-23T09:44:01.794Z,10.11
2023-02-23T09:46:38.445Z,10.29
2023-02-23T09:49:08.423Z,10.32
2023-02-23T09:51:38.607Z,10.54
2023-02-23T09:54:06.443Z,10.64
2023-02-23T09:56:39.031Z,10.54
2023-02-23T09:59:09.922Z,10.67
2023-02-23T10:01:49.871Z,10.76
2023-02-23T10:04:39.903Z,10.65
2023-02-23T10:07:27.016Z,10.69
2023-02-23T10:09:53.606Z,10.78
2023-02-23T10:12:29.838Z,10.93
2023-02-23T10:14:59.351Z,11.11
2023-02-23T10:17:55.641Z,11.27
2023-02-23T10:20:30.367Z,11.28
2023-02-23T10:23:03.910Z,11.34
2023-02-23T10:25:35.672Z,11.48
2023-02-23T10:28:02.886Z,11.56
2023-02-23T10:30:31.786Z,11.69
2023-02-23T10:33:14.496Z,11.82
2023-02-23T10:35:41.172Z,12.13
2023-02-23T10:38:14.628Z,12.51
2023-02-23T10:40:41.970Z,12.47
2023-02-23T10:43:11.802Z,12.56
2023-02-23T10:45:45.994Z,12.57
2023-02-23T10:48:19.566Z,12.32
2023-02-23T10:50:49.477Z,12.41
2023-02-23T10:53:35.974Z,12.37
2023-02-23T10:56:13.985Z,12.45
2023-02-23T10:58:48.731Z,12.65
2023-02-23T11:01:26.531Z,12.71
2023-02-23T11:04:05.418Z,12.74
2023-02-23T11:06:42.324Z,12.82
2023-02-23T11:09:41.193Z,12.96
2023-02-23T11:12:37.293Z,13.04
2023-02-23T11:15:35.124Z,13.21
2023-02-23T11:18:07.004Z,13.26
2023-02-23T11:20:37.082Z,13.25
2023-02-23T11:23:14.781Z,13.05
2023-02-23T11:25:43.434Z,13.16
2023-02-23T11:28:27.734Z,13.17
2023-02-23T11:30:54.594Z,13.28
2023-02-23T11:33:25.540Z,13.46
2023-02-23T11:35:59.975Z,13.69
2023-02-23T11:38:29.193Z,13.89
2023-02-23T11:41:01.552Z,14.00
2023-02-23T11:43:28.628Z,14.18
2023-02-23T11:45:58.341Z,14.05
2023-02-23T11:48:48.299Z,14.11
2023-02-23T11:51:24.272Z,14.05
2023-02-23T11:53:50.921Z,14.27
2023-02-23T11:56:25.700Z,14.27
2023-02-23T11:59:07.407Z,14.36
2023-02-23T12:01:44.713Z,14.45
2023-02-23T12:04:25.172Z,14.13
2023-02-23T12:06:52.367Z,13.50
2023-02-23T12:09:28.253Z,13.61
2023-02-23T12:12:10.118Z,14.01
2023-02-23T12:14:49.791Z,14.48
2023-02-23T12:17:21.257Z,14.75
2023-02-23T12:19:49.842Z,14.99
2023-02-23T12:22:22.700Z,15.11
2023-02-23T12:24:54.092Z,15.08
2023-02-23T12:27:31.711Z,15.06
2023-02-23T12:30:17.869Z,14.81
2023-02-23T12:33:02.820Z,14.69
2023-02-23T12:35:36.640Z,14.56
2023-02-23T12:38:12.291Z,14.61
2023-02-23T12:40:42.191Z,14.65
2023-02-23T12:43:25.513Z,14.75
2023-02-23T12:45:52.760Z,14.94
2023-02-23T12:48:34.499Z,14.82
2023-02-23T12:51:04.094Z,14.77
2023-02-23T12:53:41.645Z,14.59
2023-02-23T12:56:43.930Z,14.74
2023-02-23T12:59:31.439Z,14.72
2023-02-23T13:02:01.753Z,14.54
2023-02-23T13:04:56.437Z,14.49
2023-02-23T13:07:34.889Z,14.60
2023-02-23T13:10:15.457Z,14.32
2023-02-23T13:12:45.254Z,13.90
2023-02-23T13:15:30.155Z,13.78
2023-02-23T13:18:27.800Z,13.73
2023-02-23T13:21:00.731Z,13.52
2023-02-23T13:23:38.263Z,13.33
2023-02-23T13:26:14.727Z,13.12
2023-02-23T13:29:01.531Z,13.01
2023-02-23T13:31:39.163Z,13.01
2023-02-23T13:34:10.389Z,12.84
2023-02-23T13:36:39.328Z,12.74
2023-02-23T13:39:24.719Z,12.67
2023-02-23T13:42:17.341Z,12.60
2023-02-23T13:44:52.014Z,12.57
2023-02-23T13:47:33.162Z,12.55
2023-02-23T13:50:15.632Z,12.58
2023-02-23T13:52:45.249Z,12.67
2023-02-23T13:55:28.335Z,12.78
2023-02-23T13:58:25.917Z,12.88
2023-02-23T14:01:09.249Z,13.00
2023-02-23T14:03:54.202Z,13.10
2023-02-23T14:06:25.278Z,13.02
2023-02-23T14:09:01.317Z,12.98
2023-02-23T14:11:49.740Z,12.82
2023-02-23T14:14:37.369Z,13.06
2023-02-23T14:17:16.182Z,13.05
2023-02-23T14:19:43.499Z,13.17
2023-02-23T14:22:14.866Z,13.27
2023-02-23T14:24:41.636Z,13.27
2023-02-23T14:27:11.253Z,13.30
2023-02-23T14:30:12.990Z,13.18
2023-02-23T14:32:47.856Z,13.27
2023-02-23T14:35:32.884Z,13.33
2023-02-23T14:38:10.551Z,13.31
2023-02-23T14:40:43.023Z,13.21
2023-02-23T14:43:33.576Z,12.95
2023-02-23T14:46:01.739Z,12.95
2023-02-23T14:48:28.975Z,12.77
2023-02-23T14:51:16.482Z,12.69
2023-02-23T14:53:43.814Z,12.55
2023-02-23T14:56:22.675Z,12.50
2023-02-23T14:58:54.705Z,12.35
2023-02-23T15:01:34.267Z,12.25
2023-02-23T15:04:16.870Z,12.27
2023-02-23T15:06:47.073Z,12.25
2023-02-23T15:09:21.073Z,12.26
2023-02-23T15:11:50.170Z,12.35
2023-02-23T15:14:27.546Z,12.54
2023-02-23T15:16:56.121Z,12.60
2023-02-23T15:19:35.101Z,12.67
2023-02-23T15:22:03.637Z,12.66
2023-02-23T15:24:44.954Z,12.58
2023-02-23T15:27:23.656Z,12.63
2023-02-23T15:29:50.636Z,12.70
2023-02-23T15:32:23.655Z,12.63
2023-02-23T15:34:55.643Z,12.58
2023-02-23T15:37:37.117Z,12.55
2023-02-23T15:40:06.179Z,12.49
2023-02-23T15:42:41.588Z,12.35
2023-02-23T15:45:24.646Z,12.33
2023-02-23T15:47:55.549Z,12.35
2023-02-23T15:50:36.303Z,12.31
2023-02-23T15:53:13.555Z,12.20
2023-02-23T15:55:43.143Z,12.14
2023-02-23T15:58:32.115Z,12.05
2023-02-23T16:01:20.272Z,12.00
2023-02-23T16:03:59.620Z,11.93
2023-02-23T16:06:27.411Z,11.97
2023-02-23T16:09:05.855Z,11.88
2023-02-23T16:11:38.267Z,11.88
2023-02-23T16:14:06.851Z,11.82
2023-02-23T16:16:35.194Z,11.80
2023-02-23T16:19:02.780Z,11.77
2023-02-23T16:21:31.134Z,11.75
2023-02-23T16:23:59.467Z,11.76
2023-02-23T16:26:29.580Z,11.70
2023-02-23T16:29:01.026Z,11.74
2023-02-23T16:31:46.215Z,11.66
2023-02-23T16:34:28.178Z,11.54
2023-02-23T16:36:57.843Z,11.45
2023-02-23T16:39:29.355Z,11.45
2023-02-23T16:41:59.892Z,11.41
2023-02-23T16:44:34.251Z,11.33
2023-02-23T16:47:04.815Z,11.33
2023-02-23T16:49:34.162Z,11.24
2023-02-23T16:52:01.375Z,11.19
2023-02-23T16:54:27.989Z,11.13
2023-02-23T16:56:55.484Z,11.10
2023-02-23T16:59:23.152Z,11.05
2023-02-23T17:01:50.891Z,10.98
2023-02-23T17:04:21.368Z,10.97
2023-02-23T17:06:57.765Z,10.95
2023-02-23T17:09:25.187Z,10.84
2023-02-23T17:11:51.903Z,10.77
2023-02-23T17:14:28.117Z,10.69
2023-02-23T17:16:57.789Z,10.67
2023-02-23T17:19:25.721Z,10.68
2023-02-23T17:21:52.729Z,10.65
2023-02-23T17:24:19.377Z,10.62
2023-02-23T17:26:46.007Z,10.60
2023-02-23T17:29:13.194Z,10.60
2023-02-23T17:31:40.457Z,10.59
2023-02-23T17:34:07.199Z,10.56
2023-02-23T17:36:33.850Z,10.53
2023-02-23T17:39:00.982Z,10.52
2023-02-23T17:41:27.906Z,10.49
2023-02-23T17:43:54.762Z,10.46
2023-02-23T17:46:21.574Z,10.45
2023-02-23T17:48:48.228Z,10.40
2023-02-23T17:51:16.899Z,10.39
2023-02-23T17:53:43.999Z,10.38
2023-02-23T17:56:11.306Z,10.38
2023-02-23T17:58:37.990Z,10.24
2023-02-23T18:01:07.000Z,10.33
2023-02-23T18:03:35.812Z,10.33
2023-02-23T18:06:11.110Z,10.30
2023-02-23T18:08:39.416Z,10.19
2023-02-23T18:11:06.389Z,10.03
2023-02-23T18:13:35.866Z,10.00
2023-02-23T18:16:10.580Z,10.10
2023-02-23T18:18:42.705Z,10.05
2023-02-23T18:21:20.201Z,10.02
2023-02-23T18:23:47.592Z,9.90
2023-02-23T18:26:17.170Z,9.99
2023-02-23T18:28:45.791Z,10.09
2023-02-23T18:31:21.921Z,10.15
2023-02-23T18:33:55.362Z,10.09
2023-02-23T18:36:35.436Z,10.04
2023-02-23T18:39:04.155Z,10.12
2023-02-23T18:41:31.245Z,10.11
2023-02-23T18:44:02.272Z,10.06
2023-02-23T18:46:29.137Z,10.00
2023-02-23T18:48:56.038Z,9.90
2023-02-23T18:51:23.538Z,9.88
2023-02-23T18:53:51.727Z,9.82
2023-02-23T18:56:23.296Z,9.78
2023-02-23T18:58:51.093Z,9.75
2023-02-23T19:01:21.369Z,9.71
2023-02-23T19:03:49.398Z,9.66
2023-02-23T19:06:16.844Z,9.62
2023-02-23T19:08:44.254Z,9.60
2023-02-23T19:11:11.426Z,9.54
2023-02-23T19:13:38.244Z,9.51
2023-02-23T19:16:08.619Z,9.43
2023-02-23T19:18:36.177Z,9.41
2023-02-23T19:21:03.771Z,9.29
2023-02-23T19:23:30.776Z,9.20
2023-02-23T19:25:58.971Z,9.18
2023-02-23T19:28:27.293Z,9.14
2023-02-23T19:31:12.399Z,9.14
2023-02-23T19:33:39.389Z,9.14
2023-02-23T19:36:09.679Z,9.14
2023-02-23T19:38:36.774Z,9.12
2023-02-23T19:41:07.402Z,9.13
2023-02-23T19:43:34.421Z,9.16
2023-02-23T19:46:05.344Z,9.14
2023-02-23T19:48:35.468Z,9.12
2023-02-23T19:51:02.743Z,9.09
2023-02-23T19:53:29.958Z,9.06
2023-02-23T19:56:05.035Z,9.08
2023-02-23T19:58:32.250Z,9.13
2023-02-23T20:01:07.361Z,9.17
2023-02-23T20:03:34.259Z,9.16
2023-02-23T20:06:05.448Z,9.16
2023-02-23T20:08:32.426Z,9.16
2023-02-23T20:11:00.031Z,9.18
2023-02-23T20:13:29.286Z,9.19
2023-02-23T20:16:09.131Z,9.20
2023-02-23T20:18:38.605Z,9.20
2023-02-23T20:21:28.619Z,9.19
2023-02-23T20:23:55.995Z,9.20
2023-02-23T20:26:26.549Z,9.18
2023-02-23T20:28:54.551Z,9.17
2023-02-23T20:31:26.722Z,9.09
2023-02-23T20:33:54.925Z,9.02
2023-02-23T20:36:22.770Z,9.03
2023-02-23T20:38:49.395Z,9.03
2023-02-23T20:41:17.336Z,9.00
2023-02-23T20:43:44.159Z,8.99
2023-02-23T20:46:16.360Z,8.98
2023-02-23T20:48:43.843Z,8.96
2023-02-23T20:51:15.322Z,8.94
2023-02-23T20:53:45.322Z,8.92
2023-02-23T20:56:13.071Z,8.91
2023-02-23T20:58:40.192Z,8.91
2023-02-23T21:01:15.971Z,8.91
2023-02-23T21:03:42.674Z,8.86
2023-02-23T21:06:09.722Z,8.84
2023-02-23T21:08:39.958Z,8.81
2023-02-23T21:11:07.893Z,8.82
2023-02-23T21:13:35.510Z,8.79
2023-02-23T21:16:03.330Z,8.80
2023-02-23T21:18:30.926Z,8.80
2023-02-23T21:20:59.433Z,8.79
2023-02-23T21:23:26.260Z,8.77
2023-02-23T21:25:54.276Z,8.69
2023-02-23T21:28:21.009Z,8.58
2023-02-23T21:30:47.753Z,8.59
2023-02-23T21:33:14.807Z,8.58
2023-02-23T21:35:41.404Z,8.55
2023-02-23T21:38:08.396Z,8.62
2023-02-23T21:40:35.764Z,8.65
2023-02-23T21:43:06.660Z,8.67
2023-02-23T21:45:33.342Z,8.71
2023-02-23T21:47:59.992Z,8.77
2023-02-23T21:50:26.876Z,8.82
2023-02-23T21:52:56.096Z,8.78
2023-02-23T21:55:22.945Z,8.82
2023-02-23T21:57:50.380Z,8.83
2023-02-23T22:00:19.111Z,8.74
2023-02-23T22:02:46.784Z,8.73
2023-02-23T22:05:15.397Z,8.74
2023-02-23T22:07:47.574Z,8.76
2023-02-23T22:10:14.512Z,8.80
2023-02-23T22:12:41.112Z,8.76
2023-02-23T22:15:09.177Z,8.86
2023-02-23T22:17:36.389Z,8.78
2023-02-23T22:20:05.542Z,8.73
2023-02-23T22:22:36.188Z,8.84
2023-02-23T22:25:05.289Z,8.95
2023-02-23T22:27:32.325Z,8.99
2023-02-23T22:30:02.114Z,9.11
2023-02-23T22:32:32.942Z,9.16
2023-02-23T22:35:01.044Z,9.14
2023-02-23T22:37:31.699Z,9.20
2023-02-23T22:40:01.397Z,9.12
2023-02-23T22:42:30.599Z,9.18
2023-02-23T22:44:57.277Z,9.20
2023-02-23T22:47:24.196Z,9.25
2023-02-23T22:49:50.828Z,9.23
2023-02-23T22:52:17.514Z,9.26
2023-02-23T22:54:46.266Z,9.29
2023-02-23T22:57:13.532Z,9.30
2023-02-23T22:59:40.145Z,9.27
2023-02-23T23:02:06.827Z,9.23
2023-02-23T23:04:34.584Z,9.27
2023-02-23T23:07:01.382Z,9.19
2023-02-23T23:09:28.333Z,9.10
2023-02-23T23:11:56.780Z,9.02
2023-02-23T23:14:23.459Z,8.98
2023-02-23T23:16:50.244Z,8.97
2023-02-23T23:19:24.094Z,8.95
2023-02-23T23:21:56.036Z,9.00
2023-02-23T23:24:23.759Z,9.04
2023-02-23T23:26:55.529Z,9.08
2023-02-23T23:29:23.705Z,9.10
2023-02-23T23:31:51.735Z,9.09
2023-02-23T23:34:21.746Z,9.10
2023-02-23T23:36:49.676Z,9.11
2023-02-23T23:39:17.515Z,9.13
2023-02-23T23:41:48.079Z,9.14
2023-02-23T23:44:16.774Z,9.14
2023-02-23T23:46:44.779Z,9.08
2023-02-23T23:49:16.649Z,9.00
2023-02-23T23:51:50.168Z,8.99
2023-02-23T23:54:23.071Z,8.99
2023-02-23T23:56:50.413Z,9.04
2023-02-23T23:59:20.436Z,9.03
